createdAt,value
2024-02-11T00:00:34.473Z,940.0800
2024-02-11T00:01:36.724Z,939.9600
2024-02-11T00:02:38.843Z,940.0400
2024-02-11T00:03:41.122Z,940.0400
2024-02-11T00:04:43.242Z,940.0400
2024-02-11T00:05:45.470Z,940.1000
2024-02-11T00:06:47.621Z,940.0800
2024-02-11T00:07:49.799Z,940.1000
2024-02-11T00:08:52.078Z,940.1000
2024-02-11T00:09:54.159Z,940.2800
2024-02-11T00:10:56.389Z,940.2000
2024-02-11T00:11:58.534Z,940.1800
2024-02-11T00:12:58.765Z,940.2600
2024-02-11T00:14:00.850Z,940.3300
2024-02-11T00:15:02.900Z,940.3000
2024-02-11T00:16:05.041Z,940.2800
2024-02-11T00:17:07.292Z,940.3100
2024-02-11T00:18:09.342Z,940.3300
2024-02-11T00:19:11.589Z,940.4300
2024-02-11T00:20:13.698Z,940.5100
2024-02-11T00:21:15.814Z,940.3300
2024-02-11T00:22:17.938Z,940.3700
2024-02-11T00:23:20.142Z,940.4100
2024-02-11T00:24:22.212Z,940.4300
2024-02-11T00:25:24.373Z,940.4300
2024-02-11T00:26:26.514Z,940.4700
2024-02-11T00:27:28.660Z,940.4500
2024-02-11T00:28:30.889Z,940.4500
2024-02-11T00:29:32.955Z,940.4300
2024-02-11T00:30:35.086Z,940.5500
2024-02-11T00:31:37.262Z,940.4700
2024-02-11T00:32:39.552Z,940.5100
2024-02-11T00:33:42.284Z,940.5100
2024-02-11T00:34:43.848Z,940.5300
2024-02-11T00:35:45.918Z,940.5500
2024-02-11T00:36:48.107Z,940.4700
2024-02-11T00:37:50.279Z,940.5700
2024-02-11T00:38:50.272Z,940.5500
2024-02-11T00:39:52.491Z,940.5900
2024-02-11T00:40:54.677Z,940.6100
2024-02-11T00:41:56.786Z,940.6100
2024-02-11T00:42:58.902Z,940.6500
2024-02-11T00:44:01.102Z,940.6900
2024-02-11T00:45:03.198Z,940.6900
2024-02-11T00:46:05.355Z,940.7100
2024-02-11T00:47:07.625Z,940.7100
2024-02-11T00:48:09.761Z,940.7300
2024-02-11T00:49:11.920Z,940.7300
2024-02-11T00:50:14.212Z,940.7800
2024-02-11T00:51:16.234Z,940.8500
2024-02-11T00:52:18.467Z,940.8600
2024-02-11T00:53:20.682Z,940.8800
2024-02-11T00:54:22.726Z,940.9400
2024-02-11T00:55:24.922Z,940.8800
2024-02-11T00:56:27.068Z,941.0600
2024-02-11T00:57:29.246Z,941.0600
2024-02-11T00:58:31.456Z,941.0000
2024-02-11T00:59:33.589Z,941.1200
2024-02-11T01:00:35.848Z,941.1200
2024-02-11T01:01:37.941Z,941.1000
2024-02-11T01:02:40.089Z,941.1600
2024-02-11T01:03:42.267Z,941.2000
2024-02-11T01:04:44.685Z,941.1400
2024-02-11T01:05:46.805Z,941.2400
2024-02-11T01:06:48.806Z,941.2400
2024-02-11T01:07:51.045Z,941.2900
2024-02-11T01:08:53.131Z,941.2900
2024-02-11T01:09:55.284Z,941.4100
2024-02-11T01:10:57.509Z,941.3900
2024-02-11T01:11:59.674Z,941.4500
2024-02-11T01:12:59.719Z,941.4500
2024-02-11T01:14:01.881Z,941.4700
2024-02-11T01:15:04.056Z,941.5500
2024-02-11T01:16:06.246Z,941.5700
2024-02-11T01:17:08.435Z,941.4900
2024-02-11T01:18:10.641Z,941.5500
2024-02-11T01:19:12.744Z,941.6100
2024-02-11T01:20:14.969Z,941.5900
2024-02-11T01:21:17.086Z,941.6700
2024-02-11T01:22:19.240Z,941.5700
2024-02-11T01:23:21.484Z,941.6300
2024-02-11T01:24:23.840Z,941.6700
2024-02-11T01:25:25.753Z,941.6900
2024-02-11T01:26:27.925Z,941.6900
2024-02-11T01:27:30.114Z,941.7200
2024-02-11T01:28:32.353Z,941.7000
2024-02-11T01:29:34.462Z,941.7400
2024-02-11T01:30:36.598Z,941.7600
2024-02-11T01:31:41.363Z,941.7400
2024-02-11T01:32:40.991Z,941.7600
2024-02-11T01:33:43.236Z,941.7600
2024-02-11T01:34:45.381Z,941.7800
2024-02-11T01:35:47.570Z,941.8800
2024-02-11T01:36:49.765Z,941.9000
2024-02-11T01:37:52.017Z,941.9400
2024-02-11T01:38:54.175Z,941.9000
2024-02-11T01:39:56.398Z,941.9200
2024-02-11T01:40:56.506Z,941.9400
2024-02-11T01:41:58.751Z,941.9200
2024-02-11T01:43:00.982Z,942.0000
2024-02-11T01:44:03.276Z,941.9600
2024-02-11T01:45:05.483Z,941.9200
2024-02-11T01:46:07.761Z,941.9600
2024-02-11T01:47:09.996Z,941.9600
2024-02-11T01:48:12.248Z,941.9800
2024-02-11T01:49:14.515Z,942.0600
2024-02-11T01:50:16.852Z,942.0600
2024-02-11T01:51:16.805Z,942.0400
2024-02-11T01:52:19.086Z,942.0800
2024-02-11T01:53:21.293Z,942.1400
2024-02-11T01:54:23.527Z,942.1000
2024-02-11T01:55:25.702Z,942.1000
2024-02-11T01:56:27.887Z,942.1000
2024-02-11T01:57:30.106Z,942.1000
2024-02-11T01:58:32.414Z,942.1700
2024-02-11T01:59:34.481Z,942.1200
2024-02-11T02:00:36.719Z,942.1200
2024-02-11T02:01:38.890Z,942.1600
2024-02-11T02:02:41.102Z,942.1900
2024-02-11T02:03:43.279Z,942.2100
2024-02-11T02:04:45.667Z,942.1700
2024-02-11T02:05:45.820Z,942.2900
2024-02-11T02:06:47.858Z,942.2100
2024-02-11T02:07:50.074Z,942.2100
2024-02-11T02:08:52.228Z,942.2500
2024-02-11T02:09:54.440Z,942.2100
2024-02-11T02:10:56.627Z,942.2500
2024-02-11T02:11:58.822Z,942.2300
2024-02-11T02:13:01.064Z,942.2500
2024-02-11T02:14:03.271Z,942.2700
2024-02-11T02:15:05.390Z,942.2900
2024-02-11T02:16:07.633Z,942.2900
2024-02-11T02:17:09.946Z,942.3100
2024-02-11T02:18:12.200Z,942.3500
2024-02-11T02:19:14.277Z,942.3300
2024-02-11T02:20:16.514Z,942.3700
2024-02-11T02:21:18.667Z,942.3900
2024-02-11T02:22:18.747Z,942.3700
2024-02-11T02:23:20.996Z,942.3900
2024-02-11T02:24:23.202Z,942.3700
2024-02-11T02:25:25.385Z,942.3900
2024-02-11T02:26:27.553Z,942.4100
2024-02-11T02:27:29.764Z,942.4100
2024-02-11T02:28:32.023Z,942.4900
2024-02-11T02:29:34.206Z,942.4900
2024-02-11T02:30:36.432Z,942.4700
2024-02-11T02:31:38.664Z,942.4500
2024-02-11T02:32:40.916Z,942.4700
2024-02-11T02:33:43.157Z,942.4700
2024-02-11T02:34:45.339Z,942.5100
2024-02-11T02:35:47.509Z,942.5100
2024-02-11T02:36:47.540Z,942.4900
2024-02-11T02:37:49.841Z,942.5700
2024-02-11T02:38:52.011Z,942.5300
2024-02-11T02:39:54.121Z,942.5100
2024-02-11T02:40:56.396Z,942.5300
2024-02-11T02:41:58.541Z,942.5500
2024-02-11T02:43:00.775Z,942.5300
2024-02-11T02:44:03.041Z,942.5700
2024-02-11T02:45:05.140Z,942.5900
2024-02-11T02:46:07.312Z,942.5700
2024-02-11T02:47:09.579Z,942.5700
2024-02-11T02:48:11.790Z,942.5700
2024-02-11T02:49:13.928Z,942.5700
2024-02-11T02:50:16.094Z,942.5900
2024-02-11T02:51:18.117Z,942.6300
2024-02-11T02:52:20.281Z,942.6800
2024-02-11T02:53:22.473Z,942.6800
2024-02-11T02:54:24.639Z,942.6600
2024-02-11T02:55:26.808Z,942.6600
2024-02-11T02:56:29.083Z,942.6800
2024-02-11T02:57:29.136Z,942.6400
2024-02-11T02:58:31.329Z,942.7000
2024-02-11T02:59:33.499Z,942.7200
2024-02-11T03:00:35.790Z,942.7000
2024-02-11T03:01:37.869Z,942.7600
2024-02-11T03:02:40.017Z,942.7200
2024-02-11T03:03:42.334Z,942.6600
2024-02-11T03:04:44.433Z,942.7400
2024-02-11T03:05:46.567Z,942.7000
2024-02-11T03:06:48.682Z,942.6800
2024-02-11T03:07:50.882Z,942.7200
2024-02-11T03:08:53.032Z,942.7600
2024-02-11T03:09:55.268Z,942.7600
2024-02-11T03:10:57.445Z,942.7400
2024-02-11T03:11:59.545Z,942.7800
2024-02-11T03:13:01.656Z,942.7400
2024-02-11T03:14:03.930Z,942.8000
2024-02-11T03:15:06.038Z,942.8000
2024-02-11T03:16:08.235Z,942.8200
2024-02-11T03:17:10.527Z,942.8000
2024-02-11T03:18:12.663Z,942.8200
2024-02-11T03:19:14.815Z,942.8400
2024-02-11T03:20:17.239Z,942.8600
2024-02-11T03:21:19.206Z,942.8800
2024-02-11T03:22:19.266Z,942.8600
2024-02-11T03:23:21.515Z,942.9000
2024-02-11T03:24:23.742Z,942.8600
2024-02-11T03:25:25.994Z,942.8800
2024-02-11T03:26:28.230Z,942.9200
2024-02-11T03:27:30.497Z,942.8800
2024-02-11T03:28:32.824Z,942.8400
2024-02-11T03:29:34.972Z,942.8600
2024-02-11T03:30:37.278Z,942.8600
2024-02-11T03:31:39.489Z,942.8600
2024-02-11T03:32:39.643Z,942.8600
2024-02-11T03:33:42.008Z,942.8600
2024-02-11T03:34:43.952Z,942.8600
2024-02-11T03:35:46.100Z,942.8600
2024-02-11T03:36:48.328Z,942.8800
2024-02-11T03:37:49.490Z,942.8800
2024-02-11T03:38:51.566Z,942.8800
2024-02-11T03:39:53.763Z,942.9400
2024-02-11T03:40:56.038Z,942.9200
2024-02-11T03:41:58.215Z,942.9200
2024-02-11T03:42:58.348Z,942.9400
2024-02-11T03:44:00.590Z,942.9400
2024-02-11T03:45:02.820Z,942.9200
2024-02-11T03:46:05.004Z,943.0000
2024-02-11T03:47:07.221Z,943.0000
2024-02-11T03:48:09.490Z,943.0000
2024-02-11T03:49:11.616Z,943.0200
2024-02-11T03:50:13.852Z,943.0200
2024-02-11T03:51:15.995Z,942.9400
2024-02-11T03:52:18.173Z,942.9600
2024-02-11T03:53:20.474Z,942.9800
2024-02-11T03:54:22.534Z,943.0200
2024-02-11T03:55:24.755Z,943.0000
2024-02-11T03:56:26.990Z,943.0400
2024-02-11T03:57:29.121Z,943.1000
2024-02-11T03:58:31.298Z,943.0800
2024-02-11T03:59:33.486Z,943.1100
2024-02-11T04:00:35.732Z,943.1900
2024-02-11T04:01:37.930Z,943.1900
2024-02-11T04:02:40.074Z,943.2100
2024-02-11T04:03:42.325Z,943.1900
2024-02-11T04:04:44.500Z,943.2100
2024-02-11T04:05:46.697Z,943.2100
2024-02-11T04:06:48.859Z,943.1900
2024-02-11T04:07:51.100Z,943.2100
2024-02-11T04:08:53.250Z,943.1500
2024-02-11T04:09:55.486Z,943.2100
2024-02-11T04:10:57.713Z,943.1900
2024-02-11T04:11:59.949Z,943.1900
2024-02-11T04:13:02.181Z,943.1900
2024-02-11T04:14:04.433Z,943.1700
2024-02-11T04:15:06.578Z,943.2100
2024-02-11T04:16:08.823Z,943.2300
2024-02-11T04:17:11.137Z,943.1700
2024-02-11T04:18:13.334Z,943.2300
2024-02-11T04:19:15.594Z,943.2300
2024-02-11T04:20:17.844Z,943.1900
2024-02-11T04:21:17.811Z,943.2100
2024-02-11T04:22:20.103Z,943.2300
2024-02-11T04:23:22.356Z,943.2300
2024-02-11T04:24:24.504Z,943.2100
2024-02-11T04:25:26.715Z,943.2300
2024-02-11T04:26:29.019Z,943.2500
2024-02-11T04:27:31.220Z,943.2300
2024-02-11T04:28:33.482Z,943.2300
2024-02-11T04:29:35.727Z,943.2100
2024-02-11T04:30:37.931Z,943.2500
2024-02-11T04:31:40.146Z,943.2500
2024-02-11T04:32:42.402Z,943.2500
2024-02-11T04:33:44.639Z,943.2700
2024-02-11T04:34:46.909Z,943.2700
2024-02-11T04:35:49.095Z,943.3300
2024-02-11T04:36:51.351Z,943.3300
2024-02-11T04:37:53.575Z,943.3100
2024-02-11T04:38:55.758Z,943.3100
2024-02-11T04:39:57.939Z,943.3300
2024-02-11T04:41:00.143Z,943.3300
2024-02-11T04:42:02.314Z,943.3700
2024-02-11T04:43:04.551Z,943.3300
2024-02-11T04:44:06.774Z,943.3500
2024-02-11T04:45:08.925Z,943.3300
2024-02-11T04:46:11.082Z,943.3300
2024-02-11T04:47:13.369Z,943.3700
2024-02-11T04:48:15.491Z,943.3700
2024-02-11T04:49:17.698Z,943.3300
2024-02-11T04:50:19.981Z,943.3700
2024-02-11T04:51:22.039Z,943.3500
2024-02-11T04:52:26.283Z,943.3900
2024-02-11T04:53:24.390Z,943.3700
2024-02-11T04:54:26.551Z,943.3500
2024-02-11T04:55:28.889Z,943.3300
2024-02-11T04:56:31.006Z,943.3900
2024-02-11T04:57:33.182Z,943.3500
2024-02-11T04:58:35.391Z,943.3700
2024-02-11T04:59:37.616Z,943.3500
2024-02-11T05:00:39.891Z,943.3500
2024-02-11T05:01:42.100Z,943.3500
2024-02-11T05:02:44.277Z,943.3500
2024-02-11T05:03:46.549Z,943.3300
2024-02-11T05:04:48.793Z,943.3300
2024-02-11T05:05:51.172Z,943.3500
2024-02-11T05:06:53.142Z,943.3300
2024-02-11T05:07:53.239Z,943.3700
2024-02-11T05:08:55.434Z,943.3700
2024-02-11T05:09:57.636Z,943.3500
2024-02-11T05:10:59.853Z,943.3900
2024-02-11T05:12:01.972Z,943.3900
2024-02-11T05:13:04.208Z,943.4100
2024-02-11T05:14:06.476Z,943.3700
2024-02-11T05:15:08.619Z,943.4100
2024-02-11T05:16:10.858Z,943.4100
2024-02-11T05:17:13.091Z,943.3900
2024-02-11T05:18:15.255Z,943.4300
2024-02-11T05:19:17.482Z,943.4300
2024-02-11T05:20:19.707Z,943.4300
2024-02-11T05:21:21.892Z,943.4700
2024-02-11T05:22:24.097Z,943.4300
2024-02-11T05:23:26.373Z,943.4500
2024-02-11T05:24:28.506Z,943.4700
2024-02-11T05:25:30.738Z,943.4700
2024-02-11T05:26:33.019Z,943.4700
2024-02-11T05:27:35.204Z,943.5100
2024-02-11T05:28:37.463Z,943.5100
2024-02-11T05:29:39.633Z,943.4700
2024-02-11T05:30:43.683Z,943.5300
2024-02-11T05:31:41.976Z,943.5500
2024-02-11T05:32:44.222Z,943.5500
2024-02-11T05:33:46.411Z,943.5700
2024-02-11T05:34:48.545Z,943.5800
2024-02-11T05:35:51.440Z,943.6000
2024-02-11T05:36:50.816Z,943.6000
2024-02-11T05:37:53.055Z,943.6600
2024-02-11T05:38:55.249Z,943.6000
2024-02-11T05:39:57.474Z,943.6400
2024-02-11T05:41:00.028Z,943.6200
2024-02-11T05:41:59.796Z,943.6000
2024-02-11T05:43:02.049Z,943.5700
2024-02-11T05:44:04.301Z,943.6000
2024-02-11T05:45:06.534Z,943.6000
2024-02-11T05:46:08.899Z,943.5800
2024-02-11T05:47:11.195Z,943.5800
2024-02-11T05:48:13.460Z,943.6000
2024-02-11T05:49:15.637Z,943.6000
2024-02-11T05:50:15.741Z,943.6200
2024-02-11T05:51:17.857Z,943.6600
2024-02-11T05:52:20.083Z,943.6400
2024-02-11T05:53:22.350Z,943.6400
2024-02-11T05:54:24.363Z,943.6800
2024-02-11T05:55:26.529Z,943.6600
2024-02-11T05:56:28.791Z,943.6800
2024-02-11T05:57:30.921Z,943.6800
2024-02-11T05:58:33.104Z,943.7000
2024-02-11T05:59:35.380Z,943.7200
2024-02-11T06:00:38.051Z,943.7400
2024-02-11T06:01:39.887Z,943.7400
2024-02-11T06:02:42.164Z,943.7400
2024-02-11T06:03:44.355Z,943.7400
2024-02-11T06:04:46.585Z,943.7800
2024-02-11T06:05:48.793Z,943.8000
2024-02-11T06:06:51.087Z,943.8000
2024-02-11T06:07:53.626Z,943.8200
2024-02-11T06:08:53.452Z,943.8400
2024-02-11T06:09:55.608Z,943.8400
2024-02-11T06:10:57.909Z,943.8200
2024-02-11T06:12:00.065Z,943.7800
2024-02-11T06:13:02.362Z,943.8400
2024-02-11T06:14:04.548Z,943.8000
2024-02-11T06:15:06.719Z,943.8200
2024-02-11T06:16:08.924Z,943.8200
2024-02-11T06:17:11.173Z,943.8400
2024-02-11T06:18:13.431Z,943.8800
2024-02-11T06:19:15.595Z,943.8800
2024-02-11T06:20:17.752Z,943.9800
2024-02-11T06:21:19.928Z,944.0000
2024-02-11T06:22:22.142Z,943.9600
2024-02-11T06:23:22.418Z,943.9800
2024-02-11T06:24:24.441Z,943.9600
2024-02-11T06:25:26.952Z,943.9800
2024-02-11T06:26:28.962Z,944.0300
2024-02-11T06:27:31.141Z,944.0300
2024-02-11T06:28:33.410Z,944.0500
2024-02-11T06:29:35.564Z,944.0900
2024-02-11T06:30:37.830Z,944.1100
2024-02-11T06:31:40.016Z,944.1300
2024-02-11T06:32:42.254Z,944.0900
2024-02-11T06:33:44.527Z,944.1500
2024-02-11T06:34:46.609Z,944.1300
2024-02-11T06:35:48.762Z,944.1700
2024-02-11T06:36:50.948Z,944.1700
2024-02-11T06:37:53.104Z,944.1700
2024-02-11T06:38:55.303Z,944.1700
2024-02-11T06:39:57.459Z,944.2100
2024-02-11T06:40:59.698Z,944.2900
2024-02-11T06:42:01.877Z,944.2300
2024-02-11T06:43:01.929Z,944.1700
2024-02-11T06:44:04.216Z,944.1700
2024-02-11T06:45:06.398Z,944.1300
2024-02-11T06:46:08.587Z,944.1500
2024-02-11T06:47:10.855Z,944.1900
2024-02-11T06:48:10.963Z,944.2100
2024-02-11T06:49:13.197Z,944.2500
2024-02-11T06:50:15.357Z,944.2100
2024-02-11T06:51:17.548Z,944.2700
2024-02-11T06:52:19.784Z,944.2300
2024-02-11T06:53:19.987Z,944.2700
2024-02-11T06:54:22.119Z,944.2900
2024-02-11T06:55:24.327Z,944.2500
2024-02-11T06:56:26.600Z,944.2900
2024-02-11T06:57:28.786Z,944.3100
2024-02-11T06:58:31.036Z,944.3300
2024-02-11T06:59:33.309Z,944.3300
2024-02-11T07:00:35.518Z,944.3500
2024-02-11T07:01:37.738Z,944.3300
2024-02-11T07:02:39.944Z,944.3900
2024-02-11T07:03:42.221Z,944.4100
2024-02-11T07:04:44.582Z,944.3900
2024-02-11T07:05:46.872Z,944.3700
2024-02-11T07:06:48.986Z,944.3900
2024-02-11T07:07:53.124Z,944.4300
2024-02-11T07:08:53.509Z,944.4300
2024-02-11T07:09:53.632Z,944.4500
2024-02-11T07:10:55.895Z,944.4300
2024-02-11T07:11:58.118Z,944.4700
2024-02-11T07:13:00.378Z,944.4900
2024-02-11T07:14:02.668Z,944.5000
2024-02-11T07:15:04.877Z,944.4900
2024-02-11T07:16:07.118Z,944.5200
2024-02-11T07:17:09.411Z,944.5200
2024-02-11T07:18:12.050Z,944.5400
2024-02-11T07:19:13.928Z,944.5800
2024-02-11T07:20:17.262Z,944.6200
2024-02-11T07:21:18.374Z,944.5800
2024-02-11T07:22:18.483Z,944.6400
2024-02-11T07:23:20.809Z,944.6400
2024-02-11T07:24:22.941Z,944.6200
2024-02-11T07:25:25.193Z,944.6200
2024-02-11T07:26:27.520Z,944.6400
2024-02-11T07:27:29.759Z,944.6600
2024-02-11T07:28:32.032Z,944.6400
2024-02-11T07:29:34.293Z,944.6600
2024-02-11T07:30:34.434Z,944.6600
2024-02-11T07:31:36.827Z,944.7200
2024-02-11T07:32:39.093Z,944.7000
2024-02-11T07:33:41.594Z,944.7000
2024-02-11T07:34:43.826Z,944.7200
2024-02-11T07:35:45.997Z,944.7600
2024-02-11T07:36:48.159Z,944.7400
2024-02-11T07:37:48.304Z,944.7000
2024-02-11T07:38:50.549Z,944.7400
2024-02-11T07:39:52.844Z,944.7800
2024-02-11T07:40:55.157Z,944.7600
2024-02-11T07:41:55.354Z,944.7800
2024-02-11T07:42:57.615Z,944.8400
2024-02-11T07:43:59.976Z,944.8200
2024-02-11T07:45:00.138Z,944.8000
2024-02-11T07:46:02.508Z,944.8000
2024-02-11T07:47:04.804Z,944.8200
2024-02-11T07:48:07.137Z,944.8000
2024-02-11T07:49:09.449Z,944.8400
2024-02-11T07:50:11.685Z,944.8400
2024-02-11T07:51:13.933Z,944.8800
2024-02-11T07:52:14.049Z,944.8600
2024-02-11T07:53:16.354Z,944.8400
2024-02-11T07:54:18.562Z,944.8400
2024-02-11T07:55:20.856Z,944.9000
2024-02-11T07:56:23.149Z,944.9200
2024-02-11T07:57:25.403Z,944.9000
2024-02-11T07:58:27.758Z,944.9000
2024-02-11T07:59:29.957Z,944.9000
2024-02-11T08:00:30.084Z,944.9400
2024-02-11T08:01:32.459Z,944.9400
2024-02-11T08:02:34.714Z,944.9200
2024-02-11T08:03:37.039Z,944.9900
2024-02-11T08:04:39.308Z,945.0500
2024-02-11T08:05:41.553Z,944.9900
2024-02-11T08:06:43.826Z,945.0300
2024-02-11T08:07:43.976Z,945.0100
2024-02-11T08:08:46.204Z,944.9900
2024-02-11T08:09:48.464Z,945.0700
2024-02-11T08:10:50.781Z,945.0100
2024-02-11T08:11:50.858Z,944.9700
2024-02-11T08:12:53.097Z,944.9900
2024-02-11T08:13:55.468Z,944.9900
2024-02-11T08:14:57.654Z,945.0300
2024-02-11T08:15:57.738Z,945.0300
2024-02-11T08:17:00.074Z,945.0500
2024-02-11T08:18:02.420Z,945.0700
2024-02-11T08:19:04.802Z,945.0500
2024-02-11T08:20:06.801Z,945.0500
2024-02-11T08:21:09.040Z,945.0500
2024-02-11T08:22:11.315Z,945.0500
2024-02-11T08:23:13.566Z,945.0900
2024-02-11T08:24:15.704Z,945.0500
2024-02-11T08:25:17.985Z,945.0300
2024-02-11T08:26:20.369Z,945.0700
2024-02-11T08:27:22.559Z,945.0500
2024-02-11T08:28:22.680Z,945.0700
2024-02-11T08:29:25.054Z,945.0900
2024-02-11T08:30:27.281Z,945.0700
2024-02-11T08:31:29.443Z,945.0900
2024-02-11T08:32:29.679Z,945.1100
2024-02-11T08:33:31.932Z,945.0900
2024-02-11T08:34:34.084Z,945.0900
2024-02-11T08:35:36.366Z,945.1300
2024-02-11T08:36:36.486Z,945.1700
2024-02-11T08:37:38.826Z,945.2100
2024-02-11T08:38:40.980Z,945.1900
2024-02-11T08:39:43.280Z,945.1900
2024-02-11T08:40:43.421Z,945.2100
2024-02-11T08:41:45.728Z,945.2500
2024-02-11T08:42:48.061Z,945.2500
2024-02-11T08:43:50.390Z,945.2500
2024-02-11T08:44:52.697Z,945.2900
2024-02-11T08:45:55.021Z,945.3100
2024-02-11T08:46:57.304Z,945.3300
2024-02-11T08:47:57.637Z,945.3300
2024-02-11T08:48:59.886Z,945.3300
2024-02-11T08:50:02.250Z,945.3500
2024-02-11T08:51:02.760Z,945.3500
2024-02-11T08:52:04.639Z,945.3300
2024-02-11T08:53:07.156Z,945.3700
2024-02-11T08:54:09.261Z,945.3700
2024-02-11T08:55:11.554Z,945.4300
2024-02-11T08:56:13.881Z,945.4300
2024-02-11T08:57:16.150Z,945.4400
2024-02-11T08:58:16.305Z,945.4800
2024-02-11T08:59:18.661Z,945.4400
2024-02-11T09:00:20.842Z,945.4400
2024-02-11T09:01:23.110Z,945.4600
2024-02-11T09:02:23.349Z,945.4600
2024-02-11T09:03:25.574Z,945.4600
2024-02-11T09:04:27.975Z,945.5200
2024-02-11T09:05:30.227Z,945.5400
2024-02-11T09:06:30.303Z,945.5400
2024-02-11T09:07:32.508Z,945.5400
2024-02-11T09:08:34.925Z,945.5400
2024-02-11T09:09:37.070Z,945.5600
2024-02-11T09:10:39.415Z,945.5400
2024-02-11T09:11:41.634Z,945.5600
2024-02-11T09:12:43.997Z,945.5800
2024-02-11T09:13:45.919Z,945.5800
2024-02-11T09:14:46.370Z,945.6000
2024-02-11T09:15:48.612Z,945.7000
2024-02-11T09:16:50.872Z,945.6600
2024-02-11T09:17:51.040Z,945.6600
2024-02-11T09:18:53.365Z,945.6800
2024-02-11T09:19:55.590Z,945.7400
2024-02-11T09:20:57.856Z,945.7000
2024-02-11T09:21:57.953Z,945.7400
2024-02-11T09:24:13.313Z,945.8000
2024-02-11T09:25:16.383Z,945.7800
2024-02-11T09:26:18.902Z,945.7600
2024-02-11T09:27:19.817Z,945.7600
2024-02-11T09:28:22.075Z,945.7800
2024-02-11T09:29:24.535Z,945.8200
2024-02-11T09:30:26.702Z,945.8000
2024-02-11T09:31:28.762Z,945.7800
2024-02-11T09:32:31.136Z,945.8000
2024-02-11T09:33:33.294Z,945.8200
2024-02-11T09:34:35.471Z,945.8200
2024-02-11T09:35:37.606Z,945.8400
2024-02-11T09:36:39.748Z,945.9000
2024-02-11T09:37:39.763Z,945.8800
2024-02-11T09:38:40.690Z,945.8800
2024-02-11T09:39:42.863Z,945.9300
2024-02-11T09:40:44.922Z,945.9500
2024-02-11T09:41:47.050Z,945.9500
2024-02-11T09:42:49.237Z,945.9700
2024-02-11T09:43:51.413Z,945.9700
2024-02-11T09:44:53.639Z,945.9900
2024-02-11T09:45:55.851Z,946.0100
2024-02-11T09:46:58.098Z,945.9900
2024-02-11T09:48:00.433Z,945.9700
2024-02-11T09:49:02.604Z,946.0100
2024-02-11T09:50:04.831Z,946.0100
2024-02-11T09:51:06.962Z,945.9900
2024-02-11T09:52:07.044Z,945.9500
2024-02-11T09:53:09.304Z,945.9900
2024-02-11T09:54:11.452Z,946.0100
2024-02-11T09:55:13.706Z,945.9700
2024-02-11T09:56:15.935Z,946.0100
2024-02-11T09:57:18.032Z,946.0100
2024-02-11T09:58:20.264Z,946.0100
2024-02-11T09:59:22.621Z,946.0300
2024-02-11T10:00:24.748Z,946.0100
2024-02-11T10:01:26.940Z,945.9700
2024-02-11T10:02:29.322Z,946.0900
2024-02-11T10:03:31.471Z,946.0500
2024-02-11T10:04:33.675Z,946.0500
2024-02-11T10:05:35.978Z,946.0300
2024-02-11T10:06:38.174Z,946.0300
2024-02-11T10:07:40.420Z,946.0300
2024-02-11T10:08:42.644Z,946.0700
2024-02-11T10:09:44.852Z,946.0500
2024-02-11T10:10:47.226Z,946.0500
2024-02-11T10:11:49.382Z,946.0900
2024-02-11T10:12:51.591Z,946.0900
2024-02-11T10:13:53.929Z,946.0900
2024-02-11T10:14:56.044Z,946.0900
2024-02-11T10:15:58.242Z,946.1300
2024-02-11T10:17:00.554Z,946.1100
2024-02-11T10:18:02.744Z,946.0500
2024-02-11T10:19:04.944Z,946.0700
2024-02-11T10:20:07.139Z,946.1300
2024-02-11T10:21:09.350Z,946.0700
2024-02-11T10:22:19.905Z,946.0900
2024-02-11T10:23:11.652Z,946.1100
2024-02-11T10:24:13.858Z,946.0500
2024-02-11T10:25:16.105Z,946.0700
2024-02-11T10:26:18.391Z,946.0500
2024-02-11T10:27:20.552Z,946.0700
2024-02-11T10:28:22.751Z,946.1300
2024-02-11T10:29:25.039Z,946.0500
2024-02-11T10:30:27.260Z,946.1100
2024-02-11T10:31:29.547Z,946.1100
2024-02-11T10:32:32.154Z,946.1300
2024-02-11T10:33:34.404Z,946.0900
2024-02-11T10:34:36.368Z,946.0700
2024-02-11T10:35:36.529Z,946.1100
2024-02-11T10:36:38.756Z,946.1100
2024-02-11T10:37:40.924Z,946.0300
2024-02-11T10:38:43.089Z,946.0900
2024-02-11T10:39:45.469Z,946.1300
2024-02-11T10:40:45.435Z,946.1900
2024-02-11T10:41:47.570Z,946.1900
2024-02-11T10:42:49.770Z,946.1300
2024-02-11T10:43:51.953Z,946.1100
2024-02-11T10:44:54.108Z,946.1100
2024-02-11T10:45:56.424Z,946.1100
2024-02-11T10:46:58.536Z,946.1300
2024-02-11T10:48:00.903Z,946.1100
2024-02-11T10:49:03.000Z,946.1500
2024-02-11T10:50:05.251Z,946.1100
2024-02-11T10:51:07.455Z,946.0900
2024-02-11T10:52:09.704Z,946.0900
2024-02-11T10:53:11.991Z,946.0900
2024-02-11T10:55:29.408Z,946.1500
2024-02-11T10:56:31.674Z,946.1100
2024-02-11T10:57:33.824Z,946.1100
2024-02-11T10:58:36.049Z,946.1500
2024-02-11T10:59:38.259Z,946.1100
2024-02-11T11:00:40.623Z,946.1300
2024-02-11T11:01:42.812Z,946.1900
2024-02-11T11:02:45.052Z,946.1700
2024-02-11T11:03:45.201Z,946.1900
2024-02-11T11:04:47.520Z,946.1300
2024-02-11T11:05:49.682Z,946.1700
2024-02-11T11:06:51.934Z,946.1500
2024-02-11T11:07:54.222Z,946.1100
2024-02-11T11:10:26.696Z,946.1500
2024-02-11T11:11:28.903Z,946.1500
2024-02-11T11:12:30.950Z,946.1900
2024-02-11T11:13:33.155Z,946.1700
2024-02-11T11:14:35.294Z,946.1700
2024-02-11T11:15:37.507Z,946.2100
2024-02-11T11:16:39.752Z,946.1700
2024-02-11T11:17:41.934Z,946.1900
2024-02-11T11:18:44.177Z,946.1900
2024-02-11T11:19:46.388Z,946.1100
2024-02-11T11:20:46.477Z,946.1300
2024-02-11T11:21:48.652Z,946.1300
2024-02-11T11:22:50.913Z,946.1700
2024-02-11T11:23:53.054Z,946.1300
2024-02-11T11:24:55.220Z,946.0700
2024-02-11T11:25:57.443Z,946.1500
2024-02-11T11:26:59.640Z,946.0700
2024-02-11T11:28:01.864Z,946.0300
2024-02-11T11:29:04.261Z,946.1100
2024-02-11T11:30:06.373Z,946.1100
2024-02-11T11:31:08.621Z,946.1300
2024-02-11T11:32:11.064Z,946.0500
2024-02-11T11:33:13.111Z,946.0500
2024-02-11T11:34:13.217Z,946.0700
2024-02-11T11:35:15.619Z,946.0300
2024-02-11T11:36:17.601Z,946.0900
2024-02-11T11:37:19.838Z,946.0100
2024-02-11T11:38:22.120Z,946.0100
2024-02-11T11:39:24.268Z,946.0100
2024-02-11T11:40:26.531Z,945.9700
2024-02-11T11:41:28.997Z,946.0300
2024-02-11T11:42:31.004Z,946.0700
2024-02-11T11:43:33.223Z,946.0500
2024-02-11T11:44:35.497Z,946.0900
2024-02-11T11:45:35.557Z,946.0300
2024-02-11T11:46:37.838Z,946.0100
2024-02-11T11:47:40.445Z,946.0700
2024-02-11T11:48:42.492Z,946.0500
2024-02-11T11:49:44.536Z,946.0300
2024-02-11T11:50:46.745Z,946.0300
2024-02-11T11:51:49.017Z,946.0500
2024-02-11T11:52:51.246Z,946.0300
2024-02-11T11:53:53.481Z,946.0500
2024-02-11T11:54:55.721Z,946.0700
2024-02-11T11:55:58.141Z,946.0500
2024-02-11T11:56:58.155Z,946.0100
2024-02-11T11:58:00.416Z,946.0100
2024-02-11T11:59:02.715Z,946.0100
2024-02-11T12:00:05.022Z,945.9700
2024-02-11T12:02:20.340Z,945.9700
2024-02-11T12:03:22.426Z,945.9700
2024-02-11T12:04:24.844Z,945.9700
2024-02-11T12:05:26.960Z,945.9700
2024-02-11T12:06:29.201Z,945.9900
2024-02-11T12:07:31.419Z,945.9000
2024-02-11T12:08:37.267Z,945.9500
2024-02-11T12:09:35.844Z,945.9700
2024-02-11T12:10:38.081Z,945.9500
2024-02-11T12:11:40.293Z,946.0500
2024-02-11T12:12:42.575Z,946.0300
2024-02-11T12:13:42.820Z,946.0500